Bakerville, South Dakota
Current Conditions -  °F | °C
As of 1:53 AM on Sunday 26 Oct 2014 (Local Time) from KCUT Reporting Station
Clear Clear  
Wind Chill: 53°   Ceiling: Unl
Heat Index: 53°   Visibility: 10mi
Dew Point: 30°   Wind: 9mph
Humidity: 41%   Direction: 250°WSW
Pressure: 29.87"   Gusts: NA
Location:  43.6653°N, 103.766°W
Report Text: KCUT 260753Z AUTO 25008KT 10SM CLR 12/M01 A2987 RMK AO2 SLP058 T01171011
Loading
Personal Weather Stations






























Interactive Weather Map
Tropical Storm Tracking
New forecast layout! Learn more

10-Day Weather Forecast

Advertisements
Track Severe Weather on mobile